Time,TemperatureF,DewpointF,PressureIn,WindDirection,WindDirectionDegrees,WindSpeedMPH,WindSpeedGustMPH,Humidity,HourlyPrecipIn,Conditions,Clouds,dailyrainin,SoftwareType,DateUTC
2013-01-09 00:00:00,30.6,25.5,30.23,WNW,302,5.0,5.0,81,0.00,,,0.00,Wunderground v.1.15,2013-01-09 06:00:00,
2013-01-09 00:10:00,30.3,24.9,30.23,WNW,302,5.0,5.0,80,0.00,,,0.00,Wunderground v.1.15,2013-01-09 06:10:00,
2013-01-09 00:15:00,30.5,25.4,30.24,WNW,302,4.0,5.0,81,0.00,,,0.00,Wunderground v.1.15,2013-01-09 06:15:00,
2013-01-09 00:25:00,29.8,24.4,30.24,WNW,302,4.0,5.0,80,0.00,,,0.00,Wunderground v.1.15,2013-01-09 06:25:00,
2013-01-09 00:30:00,29.6,24.5,30.24,WNW,302,4.0,5.0,81,0.00,,,0.00,Wunderground v.1.15,2013-01-09 06:30:00,
2013-01-09 00:40:00,29.2,24.1,30.24,WNW,302,3.0,3.0,81,0.00,,,0.00,Wunderground v.1.15,2013-01-09 06:40:00,
2013-01-09 00:50:00,28.7,23.9,30.25,WNW,302,3.0,4.0,82,0.00,,,0.00,Wunderground v.1.15,2013-01-09 06:50:00,
2013-01-09 01:00:00,28.9,24.1,30.25,WNW,302,4.0,5.0,82,0.00,,,0.00,Wunderground v.1.15,2013-01-09 07:00:00,
2013-01-09 01:10:00,31.7,26.5,30.25,WNW,298,6.0,6.0,81,0.00,,,0.00,Wunderground v.1.15,2013-01-09 07:10:00,
2013-01-09 01:20:00,32.2,26.4,30.25,WNW,290,6.0,6.0,79,0.00,,,0.00,Wunderground v.1.15,2013-01-09 07:20:00,
2013-01-09 01:30:00,32.1,26.0,30.26,WNW,288,6.0,6.0,78,0.00,,,0.00,Wunderground v.1.15,2013-01-09 07:30:00,
2013-01-09 01:40:00,31.5,25.1,30.26,WNW,288,6.0,6.0,77,0.00,,,0.00,Wunderground v.1.15,2013-01-09 07:40:00,
2013-01-09 01:45:00,30.9,24.8,30.26,WNW,288,5.0,6.0,78,0.00,,,0.00,Wunderground v.1.15,2013-01-09 07:45:00,
2013-01-09 01:50:00,30.7,24.7,30.27,WNW,288,6.0,6.0,78,0.00,,,0.00,Wunderground v.1.15,2013-01-09 07:50:00,
2013-01-09 02:00:00,31.3,25.5,30.27,WNW,287,6.0,7.0,79,0.00,,,0.00,Wunderground v.1.15,2013-01-09 08:00:00,
2013-01-09 02:10:00,32.2,26.1,30.27,WNW,289,8.0,9.0,78,0.00,,,0.00,Wunderground v.1.15,2013-01-09 08:10:00,
2013-01-09 02:20:00,31.7,25.0,30.28,WNW,284,6.0,6.0,76,0.00,,,0.00,Wunderground v.1.15,2013-01-09 08:20:00,
2013-01-09 02:30:00,29.2,22.9,30.29,WNW,284,4.0,4.0,77,0.00,,,0.00,Wunderground v.1.15,2013-01-09 08:30:00,
2013-01-09 02:40:00,28.3,22.3,30.29,WNW,284,2.0,6.0,78,0.00,,,0.00,Wunderground v.1.15,2013-01-09 08:40:00,
2013-01-09 02:45:00,28.1,22.7,30.29,WNW,284,2.0,6.0,80,0.00,,,0.00,Wunderground v.1.15,2013-01-09 08:45:00,
2013-01-09 02:55:00,28.7,23.6,30.30,WNW,284,3.0,6.0,81,0.00,,,0.00,Wunderground v.1.15,2013-01-09 08:55:00,
2013-01-09 03:00:00,28.9,23.5,30.30,WNW,284,3.0,3.0,80,0.00,,,0.00,Wunderground v.1.15,2013-01-09 09:00:00,
2013-01-09 03:10:00,28.9,24.1,30.30,WNW,295,4.0,6.0,82,0.00,,,0.00,Wunderground v.1.15,2013-01-09 09:10:00,
2013-01-09 03:20:00,30.4,24.7,30.29,WNW,290,7.0,7.0,79,0.00,,,0.00,Wunderground v.1.15,2013-01-09 09:20:00,
2013-01-09 03:30:00,30.3,24.6,30.28,NW,305,5.0,6.0,79,0.00,,,0.00,Wunderground v.1.15,2013-01-09 09:30:00,
2013-01-09 03:40:00,30.5,24.5,30.28,WNW,302,6.0,6.0,78,0.00,,,0.00,Wunderground v.1.15,2013-01-09 09:40:00,
2013-01-09 03:50:00,29.2,22.9,30.28,WNW,302,3.0,3.0,77,0.00,,,0.00,Wunderground v.1.15,2013-01-09 09:50:00,
2013-01-09 03:55:00,28.5,22.2,30.28,WNW,302,1.0,6.0,77,0.00,,,0.00,Wunderground v.1.15,2013-01-09 09:55:00,
2013-01-09 04:00:00,28.0,22.0,30.28,WNW,302,1.0,6.0,78,0.00,,,0.00,Wunderground v.1.15,2013-01-09 10:00:00,
2013-01-09 04:10:00,26.0,20.4,30.27,WNW,301,2.0,6.0,79,0.00,,,0.00,Wunderground v.1.15,2013-01-09 10:10:00,
2013-01-09 04:20:00,25.9,20.6,30.28,WNW,301,2.0,6.0,80,0.00,,,0.00,Wunderground v.1.15,2013-01-09 10:20:00,
2013-01-09 04:30:00,25.1,20.1,30.27,WNW,302,2.0,6.0,81,0.00,,,0.00,Wunderground v.1.15,2013-01-09 10:30:00,
2013-01-09 04:35:00,24.3,19.0,30.29,WNW,286,3.0,6.0,80,0.00,,,0.00,Wunderground v.1.15,2013-01-09 10:35:00,
2013-01-09 04:45:00,25.0,20.6,30.29,WSW,246,5.0,6.0,83,0.00,,,0.00,Wunderground v.1.15,2013-01-09 10:45:00,
2013-01-09 04:50:00,26.2,22.0,30.28,West,260,5.0,6.0,84,0.00,,,0.00,Wunderground v.1.15,2013-01-09 10:50:00,
2013-01-09 05:00:00,26.4,21.7,30.28,West,268,4.0,4.0,82,0.00,,,0.00,Wunderground v.1.15,2013-01-09 11:00:00,
2013-01-09 05:10:00,26.2,21.5,30.29,West,268,3.0,3.0,82,0.00,,,0.00,Wunderground v.1.15,2013-01-09 11:10:00,
2013-01-09 05:20:00,25.5,20.5,30.29,West,268,2.0,6.0,81,0.00,,,0.00,Wunderground v.1.15,2013-01-09 11:20:00,
2013-01-09 05:25:00,25.8,21.1,30.29,West,268,3.0,6.0,82,0.00,,,0.00,Wunderground v.1.15,2013-01-09 11:25:00,
2013-01-09 05:35:00,26.8,22.0,30.28,West,268,4.0,6.0,82,0.00,,,0.00,Wunderground v.1.15,2013-01-09 11:35:00,
2013-01-09 05:40:00,26.2,20.9,30.29,West,268,4.0,4.0,80,0.00,,,0.00,Wunderground v.1.15,2013-01-09 11:40:00,
2013-01-09 05:50:00,25.4,20.4,30.29,West,268,2.0,2.0,81,0.00,,,0.00,Wunderground v.1.15,2013-01-09 11:50:00,
2013-01-09 06:00:00,25.1,20.1,30.29,West,268,0.0,0.0,81,0.00,,,0.00,Wunderground v.1.15,2013-01-09 12:00:00,
2013-01-09 06:10:00,24.5,19.5,30.29,West,268,0.0,0.0,81,0.00,,,0.00,Wunderground v.1.15,2013-01-09 12:10:00,
2013-01-09 06:20:00,24.3,19.6,30.30,West,268,0.0,0.0,82,0.00,,,0.00,Wunderground v.1.15,2013-01-09 12:20:00,
2013-01-09 06:30:00,24.4,20.0,30.29,West,268,0.0,0.0,83,0.00,,,0.00,Wunderground v.1.15,2013-01-09 12:30:00,
2013-01-09 06:40:00,24.9,20.5,30.29,West,268,0.0,0.0,83,0.00,,,0.00,Wunderground v.1.15,2013-01-09 12:40:00,
2013-01-09 06:50:00,24.9,20.5,30.30,West,268,1.0,1.0,83,0.00,,,0.00,Wunderground v.1.15,2013-01-09 12:50:00,
2013-01-09 07:00:00,25.0,20.6,30.31,West,268,1.0,2.0,83,0.00,,,0.00,Wunderground v.1.15,2013-01-09 13:00:00,
2013-01-09 07:05:00,24.3,19.6,30.31,West,268,2.0,2.0,82,0.00,,,0.00,Wunderground v.1.15,2013-01-09 13:05:00,
2013-01-09 07:15:00,22.3,17.4,30.31,West,268,2.0,3.0,81,0.00,,,0.00,Wunderground v.1.15,2013-01-09 13:15:00,
2013-01-09 07:20:00,22.0,17.3,30.31,West,268,1.0,1.0,82,0.00,,,0.00,Wunderground v.1.15,2013-01-09 13:20:00,
2013-01-09 07:30:00,22.9,18.8,30.33,West,268,1.0,3.0,84,0.00,,,0.00,Wunderground v.1.15,2013-01-09 13:30:00,
2013-01-09 07:40:00,21.8,17.2,30.34,West,268,3.0,3.0,82,0.00,,,0.00,Wunderground v.1.15,2013-01-09 13:40:00,
2013-01-09 07:50:00,21.2,16.8,30.34,West,268,0.0,0.0,83,0.00,,,0.00,Wunderground v.1.15,2013-01-09 13:50:00,
2013-01-09 08:00:00,20.9,16.5,30.35,West,268,0.0,0.0,83,0.00,,,0.00,Wunderground v.1.15,2013-01-09 14:00:00,
2013-01-09 08:05:00,21.4,17.3,30.36,West,268,1.0,1.0,84,0.00,,,0.00,Wunderground v.1.15,2013-01-09 14:05:00,
2013-01-09 08:10:00,21.5,17.4,30.36,West,268,0.0,6.0,84,0.00,,,0.00,Wunderground v.1.15,2013-01-09 14:10:00,
2013-01-09 08:20:00,21.2,17.1,30.37,West,268,0.0,6.0,84,0.00,,,0.00,Wunderground v.1.15,2013-01-09 14:20:00,
2013-01-09 08:30:00,21.3,17.5,30.37,West,268,1.0,1.0,85,0.00,,,0.00,Wunderground v.1.15,2013-01-09 14:30:00,
2013-01-09 08:40:00,21.6,17.8,30.38,West,268,1.0,6.0,85,0.00,,,0.00,Wunderground v.1.15,2013-01-09 14:40:00,
2013-01-09 08:50:00,21.0,16.6,30.39,West,268,2.0,6.0,83,0.00,,,0.00,Wunderground v.1.15,2013-01-09 14:50:00,
2013-01-09 09:00:00,21.3,17.2,30.39,West,268,1.0,6.0,84,0.00,,,0.00,Wunderground v.1.15,2013-01-09 15:00:00,
2013-01-09 09:05:00,21.5,17.4,30.40,West,268,0.0,6.0,84,0.00,,,0.00,Wunderground v.1.15,2013-01-09 15:05:00,
2013-01-09 09:15:00,23.1,21.4,30.40,West,268,3.0,6.0,93,0.00,,,0.00,Wunderground v.1.15,2013-01-09 15:15:00,
2013-01-09 09:20:00,23.8,19.9,30.40,West,268,3.0,6.0,85,0.00,,,0.00,Wunderground v.1.15,2013-01-09 15:20:00,
2013-01-09 09:30:00,25.2,21.0,30.41,West,268,3.0,3.0,84,0.00,,,0.00,Wunderground v.1.15,2013-01-09 15:30:00,
2013-01-09 09:40:00,26.4,22.2,30.42,West,268,2.0,6.0,84,0.00,,,0.00,Wunderground v.1.15,2013-01-09 15:40:00,
2013-01-09 09:50:00,27.5,23.0,30.42,West,268,2.0,6.0,83,0.00,,,0.00,Wunderground v.1.15,2013-01-09 15:50:00,
2013-01-09 10:00:00,28.8,24.0,30.42,West,268,3.0,6.0,82,0.00,,,0.00,Wunderground v.1.15,2013-01-09 16:00:00,
2013-01-09 10:05:00,29.6,24.8,30.42,SSW,205,5.0,6.0,82,0.00,,,0.00,Wunderground v.1.15,2013-01-09 16:05:00,
2013-01-09 10:10:00,30.4,25.3,30.43,SW,221,6.0,6.0,81,0.00,,,0.00,Wunderground v.1.15,2013-01-09 16:10:00,
2013-01-09 10:20:00,32.1,26.3,30.43,SW,217,6.0,6.0,79,0.00,,,0.00,Wunderground v.1.15,2013-01-09 16:20:00,
2013-01-09 10:30:00,33.6,27.5,30.43,SSW,209,5.0,6.0,78,0.00,,,0.00,Wunderground v.1.15,2013-01-09 16:30:00,
2013-01-09 10:40:00,34.9,28.1,30.43,SSW,206,4.0,6.0,76,0.00,,,0.00,Wunderground v.1.15,2013-01-09 16:40:00,
2013-01-09 10:50:00,36.5,28.3,30.42,SSW,193,5.0,6.0,72,0.00,,,0.00,Wunderground v.1.15,2013-01-09 16:50:00,
2013-01-09 11:00:00,37.5,27.9,30.42,SSW,198,6.0,7.0,68,0.00,,,0.00,Wunderground v.1.15,2013-01-09 17:00:00,
2013-01-09 11:05:00,38.0,27.3,30.42,SSW,211,8.0,8.0,65,0.00,,,0.00,Wunderground v.1.15,2013-01-09 17:05:00,
2013-01-09 11:15:00,39.1,28.7,30.42,SSW,200,8.0,8.0,66,0.00,,,0.00,Wunderground v.1.15,2013-01-09 17:15:00,
2013-01-09 11:20:00,39.4,28.6,30.41,SSW,192,8.0,8.0,65,0.00,,,0.00,Wunderground v.1.15,2013-01-09 17:20:00,
2013-01-09 11:30:00,40.5,28.9,30.41,SSW,211,8.0,8.0,63,0.00,,,0.00,Wunderground v.1.15,2013-01-09 17:30:00,
2013-01-09 11:40:00,41.3,28.0,30.41,SSW,198,9.0,9.0,59,0.00,,,0.00,Wunderground v.1.15,2013-01-09 17:40:00,
2013-01-09 11:50:00,42.1,29.6,30.40,SSW,200,10.0,11.0,61,0.00,,,0.00,Wunderground v.1.15,2013-01-09 17:50:00,
2013-01-09 12:00:00,43.1,28.9,30.39,SSW,202,11.0,11.0,57,0.00,,,0.00,Wunderground v.1.15,2013-01-09 18:00:00,
2013-01-09 12:05:00,43.8,27.8,30.39,SW,215,12.0,17.0,53,0.00,,,0.00,Wunderground v.1.15,2013-01-09 18:05:00,
2013-01-09 12:15:00,44.6,29.0,30.38,SSW,200,13.0,20.0,54,0.00,,,0.00,Wunderground v.1.15,2013-01-09 18:15:00,
2013-01-09 12:20:00,44.7,28.6,30.38,SSW,209,13.0,13.0,53,0.00,,,0.00,Wunderground v.1.15,2013-01-09 18:20:00,
2013-01-09 12:30:00,45.3,29.6,30.38,SW,220,13.0,13.0,54,0.00,,,0.00,Wunderground v.1.15,2013-01-09 18:30:00,
2013-01-09 12:40:00,46.2,29.5,30.37,SW,231,12.0,17.0,52,0.00,,,0.00,Wunderground v.1.15,2013-01-09 18:40:00,
2013-01-09 12:45:00,46.7,29.0,30.36,SW,223,13.0,17.0,50,0.00,,,0.00,Wunderground v.1.15,2013-01-09 18:45:00,
2013-01-09 12:50:00,47.2,29.5,30.36,SW,236,12.0,13.0,50,0.00,,,0.00,Wunderground v.1.15,2013-01-09 18:50:00,
2013-01-09 12:55:00,47.5,29.8,30.36,SSW,202,11.0,13.0,50,0.00,,,0.00,Wunderground v.1.15,2013-01-09 18:55:00,
2013-01-09 13:05:00,48.0,29.2,30.35,SW,229,12.0,13.0,48,0.00,,,0.00,Wunderground v.1.15,2013-01-09 19:05:00,
2013-01-09 13:15:00,48.5,29.2,30.34,WSW,252,10.0,11.0,47,0.00,,,0.00,Wunderground v.1.15,2013-01-09 19:15:00,
2013-01-09 13:20:00,48.8,30.0,30.33,WSW,244,9.0,9.0,48,0.00,,,0.00,Wunderground v.1.15,2013-01-09 19:20:00,
2013-01-09 13:30:00,49.3,29.9,30.33,SW,225,9.0,9.0,47,0.00,,,0.00,Wunderground v.1.15,2013-01-09 19:30:00,
2013-01-09 13:40:00,49.7,29.7,30.32,SW,221,10.0,10.0,46,0.00,,,0.00,Wunderground v.1.15,2013-01-09 19:40:00,
2013-01-09 13:50:00,50.3,31.3,30.32,SSW,212,10.0,10.0,48,0.00,,,0.00,Wunderground v.1.15,2013-01-09 19:50:00,
2013-01-09 14:00:00,51.2,31.6,30.32,SSW,213,8.0,8.0,47,0.00,,,0.00,Wunderground v.1.15,2013-01-09 20:00:00,
2013-01-09 14:10:00,51.4,29.6,30.32,SW,214,9.0,15.0,43,0.00,,,0.00,Wunderground v.1.15,2013-01-09 20:10:00,
2013-01-09 14:15:00,51.5,31.4,30.31,SSW,195,8.0,15.0,46,0.00,,,0.00,Wunderground v.1.15,2013-01-09 20:15:00,
2013-01-09 14:25:00,50.9,31.9,30.32,SSE,168,7.0,15.0,48,0.00,,,0.00,Wunderground v.1.15,2013-01-09 20:25:00,
2013-01-09 14:30:00,50.6,31.6,30.32,SSW,196,7.0,15.0,48,0.00,,,0.00,Wunderground v.1.15,2013-01-09 20:30:00,
2013-01-09 14:40:00,50.9,31.4,30.31,SSW,195,8.0,15.0,47,0.00,,,0.00,Wunderground v.1.15,2013-01-09 20:40:00,
2013-01-09 14:50:00,51.6,32.0,30.31,South,189,7.0,15.0,47,0.00,,,0.00,Wunderground v.1.15,2013-01-09 20:50:00,
2013-01-09 15:00:00,51.8,31.7,30.31,SSE,157,6.0,15.0,46,0.00,,,0.00,Wunderground v.1.15,2013-01-09 21:00:00,
2013-01-09 15:10:00,51.2,32.2,30.31,SSE,163,6.0,15.0,48,0.00,,,0.00,Wunderground v.1.15,2013-01-09 21:10:00,
2013-01-09 15:20:00,51.3,31.7,30.31,SSW,194,7.0,15.0,47,0.00,,,0.00,Wunderground v.1.15,2013-01-09 21:20:00,
2013-01-09 15:25:00,51.1,32.1,30.31,SSW,201,7.0,15.0,48,0.00,,,0.00,Wunderground v.1.15,2013-01-09 21:25:00,
2013-01-09 15:30:00,50.8,32.3,30.31,SSW,193,7.0,15.0,49,0.00,,,0.00,Wunderground v.1.15,2013-01-09 21:30:00,
2013-01-09 15:40:00,50.9,32.4,30.31,SSW,199,7.0,15.0,49,0.00,,,0.00,Wunderground v.1.15,2013-01-09 21:40:00,
2013-01-09 15:50:00,51.1,32.6,30.31,SSW,197,6.0,15.0,49,0.00,,,0.00,Wunderground v.1.15,2013-01-09 21:50:00,
2013-01-09 16:00:00,51.2,32.7,30.31,SSW,198,5.0,15.0,49,0.00,,,0.00,Wunderground v.1.15,2013-01-09 22:00:00,
2013-01-09 16:10:00,50.8,32.3,30.31,SW,218,6.0,15.0,49,0.00,,,0.00,Wunderground v.1.15,2013-01-09 22:10:00,
2013-01-09 16:15:00,50.5,32.5,30.31,SSW,202,5.0,15.0,50,0.00,,,0.00,Wunderground v.1.15,2013-01-09 22:15:00,
2013-01-09 16:25:00,50.5,32.0,30.31,SSW,192,5.0,15.0,49,0.00,,,0.00,Wunderground v.1.15,2013-01-09 22:25:00,
2013-01-09 16:30:00,50.7,31.7,30.30,SSW,195,5.0,15.0,48,0.00,,,0.00,Wunderground v.1.15,2013-01-09 22:30:00,
2013-01-09 16:40:00,49.7,31.8,30.30,SSW,194,5.0,5.0,50,0.00,,,0.00,Wunderground v.1.15,2013-01-09 22:40:00,
2013-01-09 16:45:00,49.0,31.6,30.30,South,173,4.0,15.0,51,0.00,,,0.00,Wunderground v.1.15,2013-01-09 22:45:00,
2013-01-09 16:50:00,48.5,31.7,30.30,SSE,165,4.0,15.0,52,0.00,,,0.00,Wunderground v.1.15,2013-01-09 22:50:00,
2013-01-09 17:00:00,48.2,31.9,30.30,South,184,4.0,15.0,53,0.00,,,0.00,Wunderground v.1.15,2013-01-09 23:00:00,
2013-01-09 17:10:00,47.3,31.5,30.30,South,176,4.0,15.0,54,0.00,,,0.00,Wunderground v.1.15,2013-01-09 23:10:00,
2013-01-09 17:20:00,45.2,30.9,30.29,South,175,3.0,3.0,57,0.00,,,0.00,Wunderground v.1.15,2013-01-09 23:20:00,
2013-01-09 17:25:00,44.4,30.5,30.29,South,175,1.0,15.0,58,0.00,,,0.00,Wunderground v.1.15,2013-01-09 23:25:00,
2013-01-09 17:30:00,43.8,30.4,30.29,South,172,0.0,15.0,59,0.00,,,0.00,Wunderground v.1.15,2013-01-09 23:30:00,
2013-01-09 17:40:00,43.2,31.4,30.29,South,171,4.0,15.0,63,0.00,,,0.00,Wunderground v.1.15,2013-01-09 23:40:00,
2013-01-09 17:50:00,42.2,30.5,30.29,South,173,3.0,15.0,63,0.00,,,0.00,Wunderground v.1.15,2013-01-09 23:50:00,
2013-01-09 18:00:00,40.8,30.3,30.28,South,172,4.0,4.0,66,0.00,,,0.00,Wunderground v.1.15,2013-01-10 00:00:00,
2013-01-09 18:10:00,40.1,30.4,30.29,SSE,166,3.0,4.0,68,0.00,,,0.00,Wunderground v.1.15,2013-01-10 00:10:00,
2013-01-09 18:20:00,39.6,30.6,30.29,SSE,167,4.0,5.0,70,0.00,,,0.00,Wunderground v.1.15,2013-01-10 00:20:00,
2013-01-09 18:30:00,39.4,30.4,30.28,SSE,168,4.0,4.0,70,0.00,,,0.00,Wunderground v.1.15,2013-01-10 00:30:00,
2013-01-09 18:35:00,39.1,30.1,30.28,SSE,168,2.0,4.0,70,0.00,,,0.00,Wunderground v.1.15,2013-01-10 00:35:00,
2013-01-09 18:40:00,38.6,29.7,30.28,SSE,168,1.0,1.0,70,0.00,,,0.00,Wunderground v.1.15,2013-01-10 00:40:00,
2013-01-09 18:50:00,37.7,29.5,30.28,SSE,168,0.0,0.0,72,0.00,,,0.00,Wunderground v.1.15,2013-01-10 00:50:00,
2013-01-09 19:00:00,37.0,29.1,30.28,SSE,168,0.0,2.0,73,0.00,,,0.00,Wunderground v.1.15,2013-01-10 01:00:00,
2013-01-09 19:05:00,36.7,29.2,30.29,SSE,168,1.0,5.0,74,0.00,,,0.00,Wunderground v.1.15,2013-01-10 01:05:00,
2013-01-09 19:40:00,35.3,28.8,30.29,SSE,150,2.0,2.0,77,0.00,,,0.00,Wunderground v.1.15,2013-01-10 01:40:00,